sensor_id;sensor_type;location;lat;lon;timestamp;P1;durP1;ratioP1;P2;durP2;ratioP2
20597;SDS011;10457;48.770;11.446;2022-10-16T00:04:08;6.75;;;4.93;;
20597;SDS011;10457;48.770;11.446;2022-10-16T00:09:31;7.13;;;4.95;;
20597;SDS011;10457;48.770;11.446;2022-10-16T00:14:53;8.05;;;4.45;;
20597;SDS011;10457;48.770;11.446;2022-10-16T00:20:15;5.95;;;5.00;;
20597;SDS011;10457;48.770;11.446;2022-10-16T00:25:39;6.53;;;4.47;;
20597;SDS011;10457;48.770;11.446;2022-10-16T00:31:02;5.60;;;3.70;;
20597;SDS011;10457;48.770;11.446;2022-10-16T00:36:25;6.78;;;4.50;;
20597;SDS011;10457;48.770;11.446;2022-10-16T00:41:48;5.43;;;4.68;;
20597;SDS011;10457;48.770;11.446;2022-10-16T00:47:10;7.32;;;5.20;;
20597;SDS011;10457;48.770;11.446;2022-10-16T00:52:34;5.55;;;3.65;;
20597;SDS011;10457;48.770;11.446;2022-10-16T00:57:58;5.70;;;4.53;;
20597;SDS011;10457;48.770;11.446;2022-10-16T01:03:24;6.80;;;3.72;;
20597;SDS011;10457;48.770;11.446;2022-10-16T01:08:58;6.60;;;4.55;;
20597;SDS011;10457;48.770;11.446;2022-10-16T01:14:34;4.57;;;3.95;;
20597;SDS011;10457;48.770;11.446;2022-10-16T01:20:10;4.32;;;3.70;;
20597;SDS011;10457;48.770;11.446;2022-10-16T01:25:49;4.05;;;3.08;;
20597;SDS011;10457;48.770;11.446;2022-10-16T01:31:30;3.70;;;3.10;;
20597;SDS011;10457;48.770;11.446;2022-10-16T01:36:56;3.35;;;3.00;;
20597;SDS011;10457;48.770;11.446;2022-10-16T01:42:24;3.00;;;2.70;;
20597;SDS011;10457;48.770;11.446;2022-10-16T01:47:52;4.63;;;3.25;;
20597;SDS011;10457;48.770;11.446;2022-10-16T01:53:15;7.70;;;3.78;;
20597;SDS011;10457;48.770;11.446;2022-10-16T01:58:38;6.15;;;2.92;;
20597;SDS011;10457;48.770;11.446;2022-10-16T02:04:07;4.38;;;2.92;;
20597;SDS011;10457;48.770;11.446;2022-10-16T02:09:33;3.03;;;2.45;;
20597;SDS011;10457;48.770;11.446;2022-10-16T02:14:55;4.60;;;2.65;;
20597;SDS011;10457;48.770;11.446;2022-10-16T02:20:19;3.55;;;2.72;;
20597;SDS011;10457;48.770;11.446;2022-10-16T02:25:49;6.45;;;3.20;;
20597;SDS011;10457;48.770;11.446;2022-10-16T02:31:15;5.43;;;3.03;;
20597;SDS011;10457;48.770;11.446;2022-10-16T02:36:42;6.55;;;2.55;;
20597;SDS011;10457;48.770;11.446;2022-10-16T02:42:09;2.95;;;2.63;;
20597;SDS011;10457;48.770;11.446;2022-10-16T02:47:32;5.65;;;3.38;;
20597;SDS011;10457;48.770;11.446;2022-10-16T02:52:55;4.07;;;3.42;;
20597;SDS011;10457;48.770;11.446;2022-10-16T02:58:16;6.45;;;2.72;;
20597;SDS011;10457;48.770;11.446;2022-10-16T03:03:38;5.78;;;3.05;;
20597;SDS011;10457;48.770;11.446;2022-10-16T03:09:01;3.83;;;2.92;;
20597;SDS011;10457;48.770;11.446;2022-10-16T03:14:22;8.02;;;3.28;;
20597;SDS011;10457;48.770;11.446;2022-10-16T03:19:44;6.25;;;3.25;;
20597;SDS011;10457;48.770;11.446;2022-10-16T03:25:07;8.18;;;3.28;;
20597;SDS011;10457;48.770;11.446;2022-10-16T03:30:29;2.85;;;2.58;;
20597;SDS011;10457;48.770;11.446;2022-10-16T03:35:51;4.22;;;2.75;;
20597;SDS011;10457;48.770;11.446;2022-10-16T03:41:15;3.60;;;3.05;;
20597;SDS011;10457;48.770;11.446;2022-10-16T03:46:36;3.95;;;2.80;;
20597;SDS011;10457;48.770;11.446;2022-10-16T03:51:58;4.00;;;3.28;;
20597;SDS011;10457;48.770;11.446;2022-10-16T03:57:21;3.67;;;2.78;;
20597;SDS011;10457;48.770;11.446;2022-10-16T04:02:42;6.95;;;3.05;;
20597;SDS011;10457;48.770;11.446;2022-10-16T04:08:04;4.47;;;3.65;;
20597;SDS011;10457;48.770;11.446;2022-10-16T04:13:27;4.32;;;3.22;;
20597;SDS011;10457;48.770;11.446;2022-10-16T04:18:48;3.35;;;2.70;;
20597;SDS011;10457;48.770;11.446;2022-10-16T04:24:09;5.53;;;2.65;;
20597;SDS011;10457;48.770;11.446;2022-10-16T04:29:33;2.80;;;2.60;;
20597;SDS011;10457;48.770;11.446;2022-10-16T04:34:54;2.70;;;2.50;;
20597;SDS011;10457;48.770;11.446;2022-10-16T04:40:16;4.15;;;2.90;;
20597;SDS011;10457;48.770;11.446;2022-10-16T04:45:39;3.85;;;3.00;;
20597;SDS011;10457;48.770;11.446;2022-10-16T04:51:07;3.22;;;2.75;;
20597;SDS011;10457;48.770;11.446;2022-10-16T04:56:29;3.65;;;2.95;;
20597;SDS011;10457;48.770;11.446;2022-10-16T05:01:52;4.47;;;2.50;;
20597;SDS011;10457;48.770;11.446;2022-10-16T05:07:13;2.50;;;2.30;;
20597;SDS011;10457;48.770;11.446;2022-10-16T05:12:35;3.17;;;2.33;;
20597;SDS011;10457;48.770;11.446;2022-10-16T05:17:58;4.47;;;2.17;;
20597;SDS011;10457;48.770;11.446;2022-10-16T05:23:19;2.55;;;2.22;;
20597;SDS011;10457;48.770;11.446;2022-10-16T05:28:41;7.18;;;2.60;;
20597;SDS011;10457;48.770;11.446;2022-10-16T05:34:04;5.05;;;3.00;;
20597;SDS011;10457;48.770;11.446;2022-10-16T05:39:25;4.88;;;2.97;;
20597;SDS011;10457;48.770;11.446;2022-10-16T05:44:46;5.20;;;3.30;;
20597;SDS011;10457;48.770;11.446;2022-10-16T05:50:09;3.90;;;2.90;;
20597;SDS011;10457;48.770;11.446;2022-10-16T05:55:31;4.68;;;2.97;;
20597;SDS011;10457;48.770;11.446;2022-10-16T06:00:53;2.95;;;2.63;;
20597;SDS011;10457;48.770;11.446;2022-10-16T06:06:17;3.33;;;2.85;;
20597;SDS011;10457;48.770;11.446;2022-10-16T06:11:40;7.80;;;2.83;;
20597;SDS011;10457;48.770;11.446;2022-10-16T06:17:02;12.63;;;10.27;;
20597;SDS011;10457;48.770;11.446;2022-10-16T06:22:24;15.55;;;3.55;;
20597;SDS011;10457;48.770;11.446;2022-10-16T06:27:46;3.22;;;2.92;;
20597;SDS011;10457;48.770;11.446;2022-10-16T06:33:07;10.20;;;4.10;;
20597;SDS011;10457;48.770;11.446;2022-10-16T06:38:33;4.00;;;3.20;;
20597;SDS011;10457;48.770;11.446;2022-10-16T06:43:55;5.30;;;3.22;;
20597;SDS011;10457;48.770;11.446;2022-10-16T06:49:17;4.25;;;2.85;;
20597;SDS011;10457;48.770;11.446;2022-10-16T06:54:43;6.78;;;3.63;;
20597;SDS011;10457;48.770;11.446;2022-10-16T07:00:05;3.97;;;3.58;;
20597;SDS011;10457;48.770;11.446;2022-10-16T07:05:30;4.00;;;3.10;;
20597;SDS011;10457;48.770;11.446;2022-10-16T07:10:59;6.88;;;2.97;;
20597;SDS011;10457;48.770;11.446;2022-10-16T07:16:21;5.60;;;3.08;;
20597;SDS011;10457;48.770;11.446;2022-10-16T07:21:45;4.25;;;2.88;;
20597;SDS011;10457;48.770;11.446;2022-10-16T07:27:08;5.50;;;2.38;;
20597;SDS011;10457;48.770;11.446;2022-10-16T07:32:29;6.25;;;2.42;;
20597;SDS011;10457;48.770;11.446;2022-10-16T07:37:52;5.38;;;2.47;;
20597;SDS011;10457;48.770;11.446;2022-10-16T07:43:15;2.30;;;2.10;;
20597;SDS011;10457;48.770;11.446;2022-10-16T07:48:36;2.55;;;2.25;;
20597;SDS011;10457;48.770;11.446;2022-10-16T07:53:58;2.05;;;1.55;;
20597;SDS011;10457;48.770;11.446;2022-10-16T07:59:21;5.43;;;1.83;;
20597;SDS011;10457;48.770;11.446;2022-10-16T08:04:42;2.28;;;2.08;;
20597;SDS011;10457;48.770;11.446;2022-10-16T08:10:04;2.85;;;1.67;;
20597;SDS011;10457;48.770;11.446;2022-10-16T08:15:28;2.35;;;2.15;;
20597;SDS011;10457;48.770;11.446;2022-10-16T08:20:54;2.33;;;1.80;;
20597;SDS011;10457;48.770;11.446;2022-10-16T08:26:17;2.05;;;1.60;;
20597;SDS011;10457;48.770;11.446;2022-10-16T08:31:40;1.88;;;1.77;;
20597;SDS011;10457;48.770;11.446;2022-10-16T08:37:03;1.30;;;1.20;;
20597;SDS011;10457;48.770;11.446;2022-10-16T08:42:30;2.35;;;1.70;;
20597;SDS011;10457;48.770;11.446;2022-10-16T08:48:08;2.08;;;1.55;;
20597;SDS011;10457;48.770;11.446;2022-10-16T08:53:43;2.15;;;1.10;;
20597;SDS011;10457;48.770;11.446;2022-10-16T08:59:10;1.63;;;1.52;;
20597;SDS011;10457;48.770;11.446;2022-10-16T09:04:50;2.63;;;1.70;;
20597;SDS011;10457;48.770;11.446;2022-10-16T09:10:27;2.97;;;2.13;;
20597;SDS011;10457;48.770;11.446;2022-10-16T09:16:02;2.35;;;2.15;;
20597;SDS011;10457;48.770;11.446;2022-10-16T09:21:37;3.25;;;2.22;;
20597;SDS011;10457;48.770;11.446;2022-10-16T09:27:03;2.20;;;1.98;;
20597;SDS011;10457;48.770;11.446;2022-10-16T09:32:24;2.47;;;1.58;;
20597;SDS011;10457;48.770;11.446;2022-10-16T09:37:49;4.10;;;1.50;;
20597;SDS011;10457;48.770;11.446;2022-10-16T09:43:19;3.45;;;1.48;;
20597;SDS011;10457;48.770;11.446;2022-10-16T09:48:47;2.35;;;1.23;;
20597;SDS011;10457;48.770;11.446;2022-10-16T09:54:18;5.78;;;1.42;;
20597;SDS011;10457;48.770;11.446;2022-10-16T09:59:45;1.95;;;1.77;;
20597;SDS011;10457;48.770;11.446;2022-10-16T10:05:17;2.53;;;1.40;;
20597;SDS011;10457;48.770;11.446;2022-10-16T10:10:43;1.40;;;1.25;;
20597;SDS011;10457;48.770;11.446;2022-10-16T10:16:10;1.98;;;1.45;;
20597;SDS011;10457;48.770;11.446;2022-10-16T10:21:32;1.52;;;1.42;;
20597;SDS011;10457;48.770;11.446;2022-10-16T10:26:57;2.00;;;1.20;;
20597;SDS011;10457;48.770;11.446;2022-10-16T10:32:30;2.90;;;1.35;;
20597;SDS011;10457;48.770;11.446;2022-10-16T10:38:06;2.38;;;1.52;;
20597;SDS011;10457;48.770;11.446;2022-10-16T10:43:46;1.60;;;1.33;;
20597;SDS011;10457;48.770;11.446;2022-10-16T10:49:24;1.13;;;1.00;;
20597;SDS011;10457;48.770;11.446;2022-10-16T10:55:00;1.85;;;1.70;;
20597;SDS011;10457;48.770;11.446;2022-10-16T11:00:36;1.17;;;1.13;;
20597;SDS011;10457;48.770;11.446;2022-10-16T11:06:34;2.28;;;1.35;;
20597;SDS011;10457;48.770;11.446;2022-10-16T11:12:01;3.58;;;1.20;;
20597;SDS011;10457;48.770;11.446;2022-10-16T11:17:31;1.48;;;1.23;;
20597;SDS011;10457;48.770;11.446;2022-10-16T11:23:00;1.10;;;1.02;;
20597;SDS011;10457;48.770;11.446;2022-10-16T11:28:32;1.10;;;1.00;;
20597;SDS011;10457;48.770;11.446;2022-10-16T11:34:01;1.23;;;0.98;;
20597;SDS011;10457;48.770;11.446;2022-10-16T11:39:27;2.50;;;1.00;;
20597;SDS011;10457;48.770;11.446;2022-10-16T11:44:51;0.95;;;0.90;;
20597;SDS011;10457;48.770;11.446;2022-10-16T11:50:22;1.73;;;0.90;;
20597;SDS011;10457;48.770;11.446;2022-10-16T11:55:49;1.60;;;1.05;;
20597;SDS011;10457;48.770;11.446;2022-10-16T12:01:15;2.17;;;1.33;;
20597;SDS011;10457;48.770;11.446;2022-10-16T12:06:44;2.28;;;1.67;;
20597;SDS011;10457;48.770;11.446;2022-10-16T12:12:24;2.30;;;1.27;;
20597;SDS011;10457;48.770;11.446;2022-10-16T12:17:47;1.95;;;1.02;;
20597;SDS011;10457;48.770;11.446;2022-10-16T12:23:19;1.75;;;1.40;;
20597;SDS011;10457;48.770;11.446;2022-10-16T12:28:42;1.35;;;1.10;;
20597;SDS011;10457;48.770;11.446;2022-10-16T12:34:14;0.82;;;0.82;;
20597;SDS011;10457;48.770;11.446;2022-10-16T12:39:45;6.72;;;1.17;;
20597;SDS011;10457;48.770;11.446;2022-10-16T12:45:22;1.80;;;0.90;;
20597;SDS011;10457;48.770;11.446;2022-10-16T12:50:47;1.73;;;0.85;;
20597;SDS011;10457;48.770;11.446;2022-10-16T12:56:12;2.50;;;0.80;;
20597;SDS011;10457;48.770;11.446;2022-10-16T13:01:52;1.30;;;1.00;;
20597;SDS011;10457;48.770;11.446;2022-10-16T13:07:39;3.13;;;0.93;;
20597;SDS011;10457;48.770;11.446;2022-10-16T13:13:24;1.55;;;1.00;;
20597;SDS011;10457;48.770;11.446;2022-10-16T13:19:08;1.00;;;0.90;;
20597;SDS011;10457;48.770;11.446;2022-10-16T13:24:50;1.20;;;0.98;;
20597;SDS011;10457;48.770;11.446;2022-10-16T13:30:25;2.03;;;1.15;;
20597;SDS011;10457;48.770;11.446;2022-10-16T13:35:50;1.42;;;1.33;;
20597;SDS011;10457;48.770;11.446;2022-10-16T13:41:14;1.20;;;0.82;;
20597;SDS011;10457;48.770;11.446;2022-10-16T13:46:39;0.60;;;0.60;;
20597;SDS011;10457;48.770;11.446;2022-10-16T13:52:00;0.88;;;0.80;;
20597;SDS011;10457;48.770;11.446;2022-10-16T13:57:23;1.30;;;1.13;;
20597;SDS011;10457;48.770;11.446;2022-10-16T14:02:49;1.38;;;1.10;;
20597;SDS011;10457;48.770;11.446;2022-10-16T14:08:19;0.93;;;0.88;;
20597;SDS011;10457;48.770;11.446;2022-10-16T14:13:43;1.13;;;0.82;;
20597;SDS011;10457;48.770;11.446;2022-10-16T14:19:12;0.90;;;0.70;;
20597;SDS011;10457;48.770;11.446;2022-10-16T14:24:40;1.20;;;1.02;;
20597;SDS011;10457;48.770;11.446;2022-10-16T14:30:12;1.55;;;1.05;;
20597;SDS011;10457;48.770;11.446;2022-10-16T14:35:39;4.13;;;1.02;;
20597;SDS011;10457;48.770;11.446;2022-10-16T14:41:01;2.35;;;0.98;;
20597;SDS011;10457;48.770;11.446;2022-10-16T14:46:28;3.67;;;1.30;;
20597;SDS011;10457;48.770;11.446;2022-10-16T14:51:55;5.68;;;1.00;;
20597;SDS011;10457;48.770;11.446;2022-10-16T14:57:19;0.68;;;0.63;;
20597;SDS011;10457;48.770;11.446;2022-10-16T15:02:48;1.20;;;0.88;;
20597;SDS011;10457;48.770;11.446;2022-10-16T15:08:12;3.50;;;1.05;;
20597;SDS011;10457;48.770;11.446;2022-10-16T15:13:34;1.67;;;1.08;;
20597;SDS011;10457;48.770;11.446;2022-10-16T15:18:56;1.13;;;1.02;;
20597;SDS011;10457;48.770;11.446;2022-10-16T15:24:26;1.48;;;1.38;;
20597;SDS011;10457;48.770;11.446;2022-10-16T15:29:48;3.35;;;1.23;;
20597;SDS011;10457;48.770;11.446;2022-10-16T15:35:09;3.17;;;1.30;;
20597;SDS011;10457;48.770;11.446;2022-10-16T15:40:32;3.80;;;1.23;;
20597;SDS011;10457;48.770;11.446;2022-10-16T15:45:58;4.20;;;1.70;;
20597;SDS011;10457;48.770;11.446;2022-10-16T15:51:22;4.28;;;2.30;;
20597;SDS011;10457;48.770;11.446;2022-10-16T15:56:47;2.25;;;1.95;;
20597;SDS011;10457;48.770;11.446;2022-10-16T16:02:08;5.55;;;2.72;;
20597;SDS011;10457;48.770;11.446;2022-10-16T16:07:32;4.15;;;3.08;;
20597;SDS011;10457;48.770;11.446;2022-10-16T16:12:55;2.63;;;2.38;;
20597;SDS011;10457;48.770;11.446;2022-10-16T16:18:18;3.72;;;2.78;;
20597;SDS011;10457;48.770;11.446;2022-10-16T16:23:40;4.43;;;3.30;;
20597;SDS011;10457;48.770;11.446;2022-10-16T16:29:03;4.75;;;3.17;;
20597;SDS011;10457;48.770;11.446;2022-10-16T16:34:25;4.10;;;3.28;;
20597;SDS011;10457;48.770;11.446;2022-10-16T16:39:48;4.15;;;3.03;;
20597;SDS011;10457;48.770;11.446;2022-10-16T16:45:11;6.78;;;4.50;;
20597;SDS011;10457;48.770;11.446;2022-10-16T16:50:41;7.97;;;4.53;;
20597;SDS011;10457;48.770;11.446;2022-10-16T16:56:03;8.35;;;4.70;;
20597;SDS011;10457;48.770;11.446;2022-10-16T17:01:27;6.80;;;3.90;;
20597;SDS011;10457;48.770;11.446;2022-10-16T17:06:50;6.65;;;4.22;;
20597;SDS011;10457;48.770;11.446;2022-10-16T17:12:13;7.13;;;4.68;;
20597;SDS011;10457;48.770;11.446;2022-10-16T17:17:36;9.45;;;4.70;;
20597;SDS011;10457;48.770;11.446;2022-10-16T17:23:00;8.07;;;4.90;;
20597;SDS011;10457;48.770;11.446;2022-10-16T17:28:22;10.73;;;5.28;;
20597;SDS011;10457;48.770;11.446;2022-10-16T17:33:45;8.18;;;5.10;;
20597;SDS011;10457;48.770;11.446;2022-10-16T17:39:07;5.47;;;4.75;;
20597;SDS011;10457;48.770;11.446;2022-10-16T17:44:31;8.80;;;5.80;;
20597;SDS011;10457;48.770;11.446;2022-10-16T17:49:54;7.80;;;5.50;;
20597;SDS011;10457;48.770;11.446;2022-10-16T17:55:17;7.88;;;5.57;;
20597;SDS011;10457;48.770;11.446;2022-10-16T18:00:38;8.73;;;5.30;;
20597;SDS011;10457;48.770;11.446;2022-10-16T18:06:03;7.30;;;4.53;;
20597;SDS011;10457;48.770;11.446;2022-10-16T18:11:25;6.95;;;4.40;;
20597;SDS011;10457;48.770;11.446;2022-10-16T18:16:47;8.82;;;4.40;;
20597;SDS011;10457;48.770;11.446;2022-10-16T18:22:12;8.80;;;3.80;;
20597;SDS011;10457;48.770;11.446;2022-10-16T18:27:33;6.90;;;3.75;;
20597;SDS011;10457;48.770;11.446;2022-10-16T18:32:55;4.72;;;3.72;;
20597;SDS011;10457;48.770;11.446;2022-10-16T18:38:18;6.75;;;4.35;;
20597;SDS011;10457;48.770;11.446;2022-10-16T18:43:40;3.47;;;3.17;;
20597;SDS011;10457;48.770;11.446;2022-10-16T18:49:03;4.82;;;4.03;;
20597;SDS011;10457;48.770;11.446;2022-10-16T18:54:27;6.20;;;5.32;;
20597;SDS011;10457;48.770;11.446;2022-10-16T18:59:48;5.13;;;4.47;;
20597;SDS011;10457;48.770;11.446;2022-10-16T19:05:10;8.45;;;4.97;;
20597;SDS011;10457;48.770;11.446;2022-10-16T19:10:36;6.93;;;4.25;;
20597;SDS011;10457;48.770;11.446;2022-10-16T19:15:58;8.13;;;5.05;;
20597;SDS011;10457;48.770;11.446;2022-10-16T19:21:20;8.00;;;4.68;;
20597;SDS011;10457;48.770;11.446;2022-10-16T19:26:44;7.60;;;5.32;;
20597;SDS011;10457;48.770;11.446;2022-10-16T19:32:05;7.53;;;4.40;;
20597;SDS011;10457;48.770;11.446;2022-10-16T19:37:26;9.90;;;5.13;;
20597;SDS011;10457;48.770;11.446;2022-10-16T19:42:49;7.05;;;4.90;;
20597;SDS011;10457;48.770;11.446;2022-10-16T19:48:11;7.22;;;4.60;;
20597;SDS011;10457;48.770;11.446;2022-10-16T19:53:32;11.98;;;5.22;;
20597;SDS011;10457;48.770;11.446;2022-10-16T19:58:55;5.72;;;4.40;;
20597;SDS011;10457;48.770;11.446;2022-10-16T20:04:18;5.18;;;3.53;;
20597;SDS011;10457;48.770;11.446;2022-10-16T20:09:40;4.22;;;3.63;;
20597;SDS011;10457;48.770;11.446;2022-10-16T20:15:03;3.90;;;3.17;;
20597;SDS011;10457;48.770;11.446;2022-10-16T20:20:26;6.63;;;4.45;;
20597;SDS011;10457;48.770;11.446;2022-10-16T20:25:47;6.30;;;4.32;;
20597;SDS011;10457;48.770;11.446;2022-10-16T20:31:12;4.25;;;3.85;;
20597;SDS011;10457;48.770;11.446;2022-10-16T20:36:39;6.07;;;4.90;;
20597;SDS011;10457;48.770;11.446;2022-10-16T20:42:03;5.57;;;4.70;;
20597;SDS011;10457;48.770;11.446;2022-10-16T20:47:27;6.15;;;4.50;;
20597;SDS011;10457;48.770;11.446;2022-10-16T20:52:48;6.28;;;4.50;;
20597;SDS011;10457;48.770;11.446;2022-10-16T20:58:10;9.18;;;4.95;;
20597;SDS011;10457;48.770;11.446;2022-10-16T21:03:41;6.10;;;4.35;;
20597;SDS011;10457;48.770;11.446;2022-10-16T21:09:06;9.15;;;4.50;;
20597;SDS011;10457;48.770;11.446;2022-10-16T21:14:28;6.43;;;4.07;;
20597;SDS011;10457;48.770;11.446;2022-10-16T21:20:01;5.97;;;3.90;;
20597;SDS011;10457;48.770;11.446;2022-10-16T21:25:22;5.20;;;3.83;;
20597;SDS011;10457;48.770;11.446;2022-10-16T21:30:45;6.80;;;5.05;;
20597;SDS011;10457;48.770;11.446;2022-10-16T21:36:14;5.30;;;4.53;;
20597;SDS011;10457;48.770;11.446;2022-10-16T21:41:39;7.50;;;5.38;;
20597;SDS011;10457;48.770;11.446;2022-10-16T21:47:01;6.90;;;4.68;;
20597;SDS011;10457;48.770;11.446;2022-10-16T21:52:24;6.07;;;4.47;;
20597;SDS011;10457;48.770;11.446;2022-10-16T21:57:46;6.65;;;4.05;;
20597;SDS011;10457;48.770;11.446;2022-10-16T22:03:08;6.40;;;4.47;;
20597;SDS011;10457;48.770;11.446;2022-10-16T22:08:31;6.60;;;4.80;;
20597;SDS011;10457;48.770;11.446;2022-10-16T22:13:54;7.72;;;4.20;;
20597;SDS011;10457;48.770;11.446;2022-10-16T22:19:17;7.55;;;5.05;;
20597;SDS011;10457;48.770;11.446;2022-10-16T22:24:41;5.65;;;4.72;;
20597;SDS011;10457;48.770;11.446;2022-10-16T22:30:03;5.78;;;4.60;;
20597;SDS011;10457;48.770;11.446;2022-10-16T22:35:35;6.07;;;4.70;;
20597;SDS011;10457;48.770;11.446;2022-10-16T22:41:01;28.95;;;19.30;;
20597;SDS011;10457;48.770;11.446;2022-10-16T22:46:23;30.13;;;20.33;;
20597;SDS011;10457;48.770;11.446;2022-10-16T22:51:47;25.23;;;22.25;;
20597;SDS011;10457;48.770;11.446;2022-10-16T22:57:10;16.10;;;13.23;;
20597;SDS011;10457;48.770;11.446;2022-10-16T23:02:32;9.38;;;7.32;;
20597;SDS011;10457;48.770;11.446;2022-10-16T23:07:54;6.82;;;5.70;;
20597;SDS011;10457;48.770;11.446;2022-10-16T23:13:17;6.20;;;4.55;;
20597;SDS011;10457;48.770;11.446;2022-10-16T23:18:38;10.27;;;4.75;;
20597;SDS011;10457;48.770;11.446;2022-10-16T23:24:01;8.27;;;7.13;;
20597;SDS011;10457;48.770;11.446;2022-10-16T23:29:24;10.23;;;7.75;;
20597;SDS011;10457;48.770;11.446;2022-10-16T23:34:49;5.72;;;5.03;;
20597;SDS011;10457;48.770;11.446;2022-10-16T23:40:11;5.53;;;4.60;;
20597;SDS011;10457;48.770;11.446;2022-10-16T23:45:33;6.72;;;5.03;;
20597;SDS011;10457;48.770;11.446;2022-10-16T23:50:55;7.20;;;5.10;;
20597;SDS011;10457;48.770;11.446;2022-10-16T23:56:17;9.00;;;4.22;;
